• location
  • image
mod_vvisit_countermod_vvisit_countermod_vvisit_countermod_vvisit_countermod_vvisit_countermod_vvisit_counter
mod_vvisit_counterToday677
mod_vvisit_counterYesterday605
mod_vvisit_counterThis week3697
mod_vvisit_counterLast week4055
mod_vvisit_counterThis month15584
mod_vvisit_counterLast month26640
mod_vvisit_counterAll days680582

We have: 69 guests, 1 bots online
Your IP: 54.161.25.213
 , 
Today: Jun 24, 2017
Airport / Business / Payment methods

Payment methods

 

The client may pay for aircraft ground handling services and other services provided by the Municipal company Siauliu Oro uostas by the following credit and debit cards:

  

 visa k

Visa / Visa Electron

 

maestro mastercard 

Master Card / Maestro

  multiservice

Multiservice Air Cards are accepted

 

euro


Also you can pay in cash (euros)

 

 

 

The bank transfer is also accepted.

Today

Saturday, 24 June 2017

Weather Forecast

Siauliai °C
   

Aviation Weather Forecast

[source: ADDS]
METAR
EYSA 241020Z 23007KT 7000 -SHRA SCT015CB BKN025 BKN034 14/12 Q1005 WHT TEMPO SCT010 BKN025 GRN =
TAF
TAF EYSA 240800Z 2409/2418 21014KT 7000 SCT010 BKN025 TEMPO 2409/2412 SCT015CB TEMPO 2412/2418 SHRA BKN015CB =
SR / SS: 01:49 / 19:11 UTC (EYSA 2017-06-24)

Search

Who's Online

We have 62 guests online

tic logo en